Map

Track Data

SID SEASON NUMBER BASIN SUBBASIN NAME ISO_TIME NATURE LAT LON WMO_WIND WMO_PRES WMO_AGENCY TRACK_TYPE DIST2LAND LANDFALL IFLAG USA_AGENCY USA_ATCF_ID USA_LAT USA_LON USA_RECORD USA_STATUS USA_WIND USA_PRES USA_SSHS USA_R34_NE USA_R34_SE USA_R34_SW USA_R34_NW USA_R50_NE USA_R50_SE USA_R50_SW USA_R50_NW USA_R64_NE USA_R64_SE USA_R64_SW USA_R64_NW USA_POCI USA_ROCI USA_RMW USA_EYE TOKYO_LAT TOKYO_LON TOKYO_GRADE TOKYO_WIND TOKYO_PRES TOKYO_R50_DIR TOKYO_R50_LONG TOKYO_R50_SHORT TOKYO_R30_DIR TOKYO_R30_LONG TOKYO_R30_SHORT TOKYO_LAND CMA_LAT CMA_LON CMA_CAT CMA_WIND CMA_PRES HKO_LAT HKO_LON HKO_CAT HKO_WIND HKO_PRES NEWDELHI_LAT NEWDELHI_LON NEWDELHI_GRADE NEWDELHI_WIND NEWDELHI_PRES NEWDELHI_CI NEWDELHI_DP NEWDELHI_POCI REUNION_LAT REUNION_LON REUNION_TYPE REUNION_WIND REUNION_PRES REUNION_TNUM REUNION_CI REUNION_RMW REUNION_R34_NE REUNION_R34_SE REUNION_R34_SW REUNION_R34_NW REUNION_R50_NE REUNION_R50_SE REUNION_R50_SW REUNION_R50_NW REUNION_R64_NE REUNION_R64_SE REUNION_R64_SW REUNION_R64_NW BOM_LAT BOM_LON BOM_TYPE BOM_WIND BOM_PRES BOM_TNUM BOM_CI BOM_RMW BOM_R34_NE BOM_R34_SE BOM_R34_SW BOM_R34_NW BOM_R50_NE BOM_R50_SE BOM_R50_SW BOM_R50_NW BOM_R64_NE BOM_R64_SE BOM_R64_SW BOM_R64_NW BOM_ROCI BOM_POCI BOM_EYE BOM_POS_METHOD BOM_PRES_METHOD NADI_LAT NADI_LON NADI_CAT NADI_WIND NADI_PRES WELLINGTON_LAT WELLINGTON_LON WELLINGTON_WIND WELLINGTON_PRES DS824_LAT DS824_LON DS824_STAGE DS824_WIND DS824_PRES TD9636_LAT TD9636_LON TD9636_STAGE TD9636_WIND TD9636_PRES TD9635_LAT TD9635_LON TD9635_WIND TD9635_PRES TD9635_ROCI NEUMANN_LAT NEUMANN_LON NEUMANN_CLASS NEUMANN_WIND NEUMANN_PRES MLC_LAT MLC_LON MLC_CLASS MLC_WIND MLC_PRES USA_GUST BOM_GUST BOM_GUST_PER REUNION_GUST REUNION_GUST_PER USA_SEAHGT USA_SEARAD_NE USA_SEARAD_SE USA_SEARAD_SW USA_SEARAD_NW STORM_SPEED STORM_DIR
1917274N19089 1917 45 NI BB NOT_NAMED 1917-10-01 00:00:00 TS 19.3000 88.5000 main 219 219 _________O____ -1 19.3000 88.5000 TC 30 0 0
1917274N19089 1917 45 NI BB NOT_NAMED 1917-10-01 03:00:00 TS 19.3000 88.5000 main 219 219 _________PO___ -1 19.3000 88.5000 TC 30 19.3000 88.5000 1 0 0
1917274N19089 1917 45 NI BB NOT_NAMED 1917-10-01 06:00:00 TS 19.3000 88.5000 main 219 219 _________OP___ -1 19.3000 88.5000 TC 30 19.3000 88.5000 1 0 0
1917274N19089 1917 45 NI BB NOT_NAMED 1917-10-01 09:00:00 TS 19.3000 88.5000 main 219 219 _________PP___ -1 19.3000 88.5000 TC 30 19.3000 88.5000 1 0 0
1917274N19089 1917 45 NI BB NOT_NAMED 1917-10-01 12:00:00 TS 19.3000 88.5000 main 219 219 _________OP___ -1 19.3000 88.5000 TC 30 19.3000 88.5000 1 0 0
1917274N19089 1917 45 NI BB NOT_NAMED 1917-10-01 15:00:00 TS 19.3000 88.5000 main 219 219 _________PO___ -1 19.3000 88.5000 TC 30 19.3000 88.5000 1 0 0
1917274N19089 1917 45 NI BB NOT_NAMED 1917-10-01 18:00:00 TS 19.3000 88.5000 main 219 219 _________OP___ -1 19.3000 88.5000 TC 30 19.3000 88.5000 1 0 0
1917274N19089 1917 45 NI BB NOT_NAMED 1917-10-01 21:00:00 TS 19.3000 88.5000 main 219 219 _________PP___ -1 19.3000 88.5000 TC 30 19.3000 88.5000 1 0 0
1917274N19089 1917 45 NI BB NOT_NAMED 1917-10-02 00:00:00 TS 19.3000 88.5000 main 219 219 _________OP___ -1 19.3000 88.5000 TC 30 19.3000 88.5000 1 0 0
1917274N19089 1917 45 NI BB NOT_NAMED 1917-10-02 03:00:00 TS 19.3000 88.5000 main 219 219 _________PO___ -1 19.3000 88.5000 TC 30 19.3000 88.5000 1 0 0
1917274N19089 1917 45 NI BB NOT_NAMED 1917-10-02 06:00:00 TS 19.3000 88.5000 main 219 219 _________OP___ -1 19.3000 88.5000 TC 30 19.3000 88.5000 1 0 0
1917274N19089 1917 45 NI BB NOT_NAMED 1917-10-02 09:00:00 TS 19.3000 88.5000 main 219 219 _________PP___ -1 19.3000 88.5000 TC 30 19.3000 88.5000 1 0 0
1917274N19089 1917 45 NI BB NOT_NAMED 1917-10-02 12:00:00 TS 19.3000 88.5000 main 219 219 _________OP___ -1 19.3000 88.5000 TC 30 19.3000 88.5000 1 0 0
1917274N19089 1917 45 NI BB NOT_NAMED 1917-10-02 15:00:00 TS 19.3000 88.5000 main 219 219 _________PO___ -1 19.3000 88.5000 TC 30 19.3000 88.5000 1 0 0
1917274N19089 1917 45 NI BB NOT_NAMED 1917-10-02 18:00:00 TS 19.3000 88.5000 main 219 219 _________OP___ -1 19.3000 88.5000 TC 30 19.3000 88.5000 1 0 0
1917274N19089 1917 45 NI BB NOT_NAMED 1917-10-02 21:00:00 TS 19.3000 88.5000 main 219 219 _________PP___ -1 19.3000 88.5000 TC 30 19.3000 88.5000 1 0 0
1917274N19089 1917 45 NI BB NOT_NAMED 1917-10-03 00:00:00 TS 19.3000 88.5000 main 219 219 _________OP___ -1 19.3000 88.5000 TC 30 19.3000 88.5000 1 0 0
1917274N19089 1917 45 NI BB NOT_NAMED 1917-10-03 03:00:00 TS 19.3000 88.5000 main 219 219 _________PO___ -1 19.3000 88.5000 TC 30 19.3000 88.5000 1 1 114
1917274N19089 1917 45 NI BB NOT_NAMED 1917-10-03 06:00:00 TS 19.2771 88.5605 main 228 228 _________OP___ -1 19.3000 88.5000 TC 30 19.2543 88.6209 1 2 111
1917274N19089 1917 45 NI BB NOT_NAMED 1917-10-03 09:00:00 TS 19.2388 88.6677 main 242 228 _________PP___ -1 19.2620 88.6121 TC 30 19.2155 88.7232 1 0 116
1917274N19089 1917 45 NI BB NOT_NAMED 1917-10-03 12:00:00 TS 19.2595 88.6070 main 228 186 _________OP___ -1 19.3000 88.5000 TC 30 19.2191 88.7139 1 5 290
1917274N19089 1917 45 NI BB NOT_NAMED 1917-10-03 15:00:00 TS 19.4028 88.1814 main 186 107 _________PO___ -1 19.5056 87.8628 TC 30 19.3000 88.5000 1 12 290
1917274N19089 1917 45 NI BB NOT_NAMED 1917-10-03 18:00:00 TS 19.6724 87.4237 main 99 20 _________OP___ -1 19.8000 87.0000 TC 30 19.5448 87.8474 1 16 291
1917274N19089 1917 45 NI BB NOT_NAMED 1917-10-03 21:00:00 TS 19.9972 86.5717 main 20 0 _________PP___ -1 20.1381 86.1382 TC 30 19.8563 87.0052 1 16 292
1917274N19089 1917 45 NI BB NOT_NAMED 1917-10-04 00:00:00 TS 20.2819 85.8298 main 0 0 _________OP___ -1 20.4000 85.5000 TC 30 20.1637 86.1597 1 11 292
1917274N19089 1917 45 NI BB NOT_NAMED 1917-10-04 03:00:00 TS 20.4222 85.4435 main 0 0 _________PO___ -1 20.4445 85.3871 TC 30 20.4000 85.5000 1 4 291
1917274N19089 1917 45 NI BB NOT_NAMED 1917-10-04 06:00:00 TS 20.4385 85.3914 main 0 0 _________OP___ -1 20.4000 85.5000 TC 30 20.4771 85.2829 1 1 289
1917274N19089 1917 45 NI BB NOT_NAMED 1917-10-04 09:00:00 TS 20.4402 85.3867 main 0 0 _________PP___ -1 20.4000 85.5000 TC 30 20.4804 85.2735 1 0 115
1917274N19089 1917 45 NI BB NOT_NAMED 1917-10-04 12:00:00 TS 20.4218 85.4387 main 0 0 _________OP___ -1 20.4000 85.5000 TC 30 20.4436 85.3773 1 1 111
1917274N19089 1917 45 NI BB NOT_NAMED 1917-10-04 15:00:00 TS 20.4000 85.5000 main 0 0 _________PO___ -1 20.4000 85.5000 TC 30 20.4000 85.5000 1 1 113
1917274N19089 1917 45 NI BB NOT_NAMED 1917-10-04 18:00:00 TS 20.3836 85.5303 main 0 0 _________OP___ -1 20.4000 85.5000 TC 30 20.3672 85.5606 1 1 122
1917274N19089 1917 45 NI BB NOT_NAMED 1917-10-04 21:00:00 TS 20.3585 85.5784 main 0 0 _________PP___ -1 20.3774 85.5449 TC 30 20.3395 85.6118 1 0 0
1917274N19089 1917 45 NI BB NOT_NAMED 1917-10-05 00:00:00 TS 20.3710 85.5536 main 0 0 _________OP___ -1 20.4000 85.5000 TC 30 20.3420 85.6072 1 2 298
1917274N19089 1917 45 NI BB NOT_NAMED 1917-10-05 03:00:00 TS 20.4562 85.3837 main 0 0 _________PO___ -1 20.5125 85.2674 TC 30 20.4000 85.5000 1 5 298
1917274N19089 1917 45 NI BB NOT_NAMED 1917-10-05 06:00:00 TS 20.6155 85.0585 main 0 0 _________OP___ -1 20.7000 84.9000 TC 30 20.5310 85.2170 1 8 298
1917274N19089 1917 45 NI BB NOT_NAMED 1917-10-05 09:00:00 TS 20.8269 84.6417 main 0 0 _________PP___ -1 20.9352 84.4502 TC 30 20.7185 84.8331 1 9 300
1917274N19089 1917 45 NI BB NOT_NAMED 1917-10-05 12:00:00 TS 21.0733 84.2038 main 0 0 _________OP___ -1 21.2000 84.0000 TC 30 20.9467 84.4076 1 9 303
1917274N19089 1917 45 NI BB NOT_NAMED 1917-10-05 15:00:00 TS 21.3212 83.8349 main 0 0 _________PO___ -1 21.4423 83.6698 TC 30 21.2000 84.0000 1 8 307
1917274N19089 1917 45 NI BB NOT_NAMED 1917-10-05 18:00:00 TS 21.5665 83.4980 main 0 0 _________OP___ -1 21.7000 83.4000 TC 30 21.4331 83.5959 1 8 309
1917274N19089 1917 45 NI BB NOT_NAMED 1917-10-05 21:00:00 TS 21.8262 83.1587 main 0 0 _________PP___ -1 21.9625 83.0828 TC 30 21.6898 83.2346 1 8 318
1917274N19089 1917 45 NI BB NOT_NAMED 1917-10-06 00:00:00 TS 22.1383 82.9405 main 0 0 _________OP___ -1 22.3000 82.9000 TC 30 21.9766 82.9809 1 8 342
1917274N19089 1917 45 NI BB NOT_NAMED 1917-10-06 03:00:00 TS 22.5498 82.9150 main 0 0 _________PO___ -1 22.7996 82.9299 TC 30 22.3000 82.9000 1 9 10
1917274N19089 1917 45 NI BB NOT_NAMED 1917-10-06 06:00:00 TS 23.0060 83.1078 main 0 0 _________OP___ -1 23.3000 83.2000 TC 30 22.7120 83.0155 1 10 32
1917274N19089 1917 45 NI BB NOT_NAMED 1917-10-06 09:00:00 TS 23.4019 83.4935 main 0 0 _________PP___ -1 23.6526 83.6748 TC 30 23.1513 83.3122 1 11 49
1917274N19089 1917 45 NI BB NOT_NAMED 1917-10-06 12:00:00 TS 23.7325 84.0265 main 0 0 _________OP___ -1 23.9000 84.3000 TC 30 23.5650 83.7530 1 12 60
1917274N19089 1917 45 NI BB NOT_NAMED 1917-10-06 15:00:00 TS 23.9936 84.6138 main 0 0 _________PO___ -1 24.0873 84.9277 TC 30 23.9000 84.3000 1 12 70
1917274N19089 1917 45 NI BB NOT_NAMED 1917-10-06 18:00:00 TS 24.1524 85.2735 main 0 0 _________OP___ -1 24.2000 85.6000 TC 30 24.1049 84.9470 1 13 79
1917274N19089 1917 45 NI BB NOT_NAMED 1917-10-06 21:00:00 TS 24.2482 86.0129 main 0 0 _________PP___ -1 24.2729 86.3526 TC 30 24.2235 85.6732 1 13 84
1917274N19089 1917 45 NI BB NOT_NAMED 1917-10-07 00:00:00 TS 24.2900 86.6938 main 0 0 _________OP___ -1 24.3000 87.0000 TC 30 24.2799 86.3877 1 11 87
1917274N19089 1917 45 NI BB NOT_NAMED 1917-10-07 03:00:00 TS 24.3035 87.1838 main 0 0 _________PO___ -1 24.3070 87.3676 TC 30 24.3000 87.0000 1 7 88
1917274N19089 1917 45 NI BB NOT_NAMED 1917-10-07 06:00:00 TS 24.3115 87.4994 main 0 0 _________OP___ -1 24.3000 87.6000 TC 30 24.3229 87.3988 1 5 89
1917274N19089 1917 45 NI BB NOT_NAMED 1917-10-07 09:00:00 TS 24.3102 87.7716 main 0 0 _________PP___ -1 24.2999 87.8575 TC 30 24.3205 87.6857 1 5 91
1917274N19089 1917 45 NI BB NOT_NAMED 1917-10-07 12:00:00 TS 24.3039 88.0024 main 0 0 _________OP___ -1 24.3000 88.1000 TC 30 24.3078 87.9048 1 4 92
1917274N19089 1917 45 NI BB NOT_NAMED 1917-10-07 15:00:00 TS 24.2962 88.2288 main 0 0 _________PO___ -1 24.2925 88.3575 TC 30 24.3000 88.1000 1 4 90
1917274N19089 1917 45 NI BB NOT_NAMED 1917-10-07 18:00:00 TS 24.3047 88.4327 main 0 0 _________OP___ -1 24.3000 88.6000 TC 30 24.3083 88.3072 1 4 84
1917274N19089 1917 45 NI BB NOT_NAMED 1917-10-07 21:00:00 TS 24.3346 88.6417 main 0 0 _________PP___ -1 24.3400 88.8099 TC 30 24.3310 88.5296 1 4 79
1917274N19089 1917 45 NI BB NOT_NAMED 1917-10-08 00:00:00 TS 24.3755 88.8415 main 0 0 _________OP___ -1 24.4000 89.0000 TC 30 24.3633 88.7622 1 3 79
1917274N19089 1917 45 NI BB NOT_NAMED 1917-10-08 03:00:00 NR 24.4000 89.0000 main 0 __________O___ -1 TC 24.4000 89.0000 1 3 80

About IBTrACS Database

This database is a web-friendly format of International Best Track Archive for Climate Stewardship (IBTrACS), a global best track data archive curated by NOAA dating back to 1842.

Updated: 2021-12-03